sensor_id;sensor_type;location;lat;lon;timestamp;temperature;humidity
18805;DHT22;9530;48.930;9.526;2022-10-12T00:00:32;13.30;99.90
18805;DHT22;9530;48.930;9.526;2022-10-12T00:02:59;13.40;99.90
18805;DHT22;9530;48.930;9.526;2022-10-12T00:05:25;13.20;99.90
18805;DHT22;9530;48.930;9.526;2022-10-12T00:07:52;13.30;99.90
18805;DHT22;9530;48.930;9.526;2022-10-12T00:10:19;13.40;99.90
18805;DHT22;9530;48.930;9.526;2022-10-12T00:12:46;13.30;99.90
18805;DHT22;9530;48.930;9.526;2022-10-12T00:15:14;13.40;99.90
18805;DHT22;9530;48.930;9.526;2022-10-12T00:17:40;13.30;99.90
18805;DHT22;9530;48.930;9.526;2022-10-12T00:20:08;13.30;99.90
18805;DHT22;9530;48.930;9.526;2022-10-12T00:22:34;13.20;99.90
18805;DHT22;9530;48.930;9.526;2022-10-12T00:25:01;13.20;99.90
18805;DHT22;9530;48.930;9.526;2022-10-12T00:27:28;13.10;99.90
18805;DHT22;9530;48.930;9.526;2022-10-12T00:29:54;13.00;99.90
18805;DHT22;9530;48.930;9.526;2022-10-12T00:32:23;12.90;99.90
18805;DHT22;9530;48.930;9.526;2022-10-12T00:34:49;12.90;99.90
18805;DHT22;9530;48.930;9.526;2022-10-12T00:37:16;12.90;99.90
18805;DHT22;9530;48.930;9.526;2022-10-12T00:39:43;12.80;99.90
18805;DHT22;9530;48.930;9.526;2022-10-12T00:42:11;12.70;99.90
18805;DHT22;9530;48.930;9.526;2022-10-12T00:44:40;12.70;99.90
18805;DHT22;9530;48.930;9.526;2022-10-12T00:47:26;12.60;99.90
18805;DHT22;9530;48.930;9.526;2022-10-12T00:49:57;12.50;99.90
18805;DHT22;9530;48.930;9.526;2022-10-12T00:52:29;12.50;99.90
18805;DHT22;9530;48.930;9.526;2022-10-12T00:54:57;12.40;99.90
18805;DHT22;9530;48.930;9.526;2022-10-12T00:57:25;12.40;99.90
18805;DHT22;9530;48.930;9.526;2022-10-12T00:59:55;12.40;99.90
18805;DHT22;9530;48.930;9.526;2022-10-12T01:02:25;12.40;99.90
18805;DHT22;9530;48.930;9.526;2022-10-12T01:04:53;12.30;99.90
18805;DHT22;9530;48.930;9.526;2022-10-12T01:07:20;12.20;99.90
18805;DHT22;9530;48.930;9.526;2022-10-12T01:09:47;12.20;99.90
18805;DHT22;9530;48.930;9.526;2022-10-12T01:12:14;12.10;99.90
18805;DHT22;9530;48.930;9.526;2022-10-12T01:14:41;12.00;99.90
18805;DHT22;9530;48.930;9.526;2022-10-12T01:17:18;12.00;99.90
18805;DHT22;9530;48.930;9.526;2022-10-12T01:20:05;11.90;99.90
18805;DHT22;9530;48.930;9.526;2022-10-12T01:22:41;11.80;99.90
18805;DHT22;9530;48.930;9.526;2022-10-12T01:25:24;11.80;99.90
18805;DHT22;9530;48.930;9.526;2022-10-12T01:28:01;11.70;99.90
18805;DHT22;9530;48.930;9.526;2022-10-12T01:30:35;11.60;99.90
18805;DHT22;9530;48.930;9.526;2022-10-12T01:33:23;11.50;99.90
18805;DHT22;9530;48.930;9.526;2022-10-12T01:35:57;11.40;99.90
18805;DHT22;9530;48.930;9.526;2022-10-12T01:38:39;11.40;99.90
18805;DHT22;9530;48.930;9.526;2022-10-12T01:41:14;11.30;99.90
18805;DHT22;9530;48.930;9.526;2022-10-12T01:43:43;11.20;99.90
18805;DHT22;9530;48.930;9.526;2022-10-12T01:46:40;11.10;99.90
18805;DHT22;9530;48.930;9.526;2022-10-12T01:49:07;11.00;99.90
18805;DHT22;9530;48.930;9.526;2022-10-12T01:51:47;11.00;99.90
18805;DHT22;9530;48.930;9.526;2022-10-12T01:54:23;10.90;99.90
18805;DHT22;9530;48.930;9.526;2022-10-12T01:56:57;10.90;99.90
18805;DHT22;9530;48.930;9.526;2022-10-12T01:59:38;10.80;99.90
18805;DHT22;9530;48.930;9.526;2022-10-12T02:02:15;10.80;99.90
18805;DHT22;9530;48.930;9.526;2022-10-12T02:04:48;10.70;99.90
18805;DHT22;9530;48.930;9.526;2022-10-12T02:07:21;10.70;99.90
18805;DHT22;9530;48.930;9.526;2022-10-12T02:09:51;10.70;99.90
18805;DHT22;9530;48.930;9.526;2022-10-12T02:12:21;10.60;99.90
18805;DHT22;9530;48.930;9.526;2022-10-12T02:14:53;10.60;99.90
18805;DHT22;9530;48.930;9.526;2022-10-12T02:17:22;10.50;99.90
18805;DHT22;9530;48.930;9.526;2022-10-12T02:19:52;10.50;99.90
18805;DHT22;9530;48.930;9.526;2022-10-12T02:22:22;10.40;99.90
18805;DHT22;9530;48.930;9.526;2022-10-12T02:24:52;10.40;99.90
18805;DHT22;9530;48.930;9.526;2022-10-12T02:27:21;10.40;99.90
18805;DHT22;9530;48.930;9.526;2022-10-12T02:29:49;10.40;99.90
18805;DHT22;9530;48.930;9.526;2022-10-12T02:32:19;10.30;99.90
18805;DHT22;9530;48.930;9.526;2022-10-12T02:34:53;10.30;99.90
18805;DHT22;9530;48.930;9.526;2022-10-12T02:37:29;10.30;99.90
18805;DHT22;9530;48.930;9.526;2022-10-12T02:40:03;10.30;99.90
18805;DHT22;9530;48.930;9.526;2022-10-12T02:42:34;10.20;99.90
18805;DHT22;9530;48.930;9.526;2022-10-12T02:45:06;10.20;99.90
18805;DHT22;9530;48.930;9.526;2022-10-12T02:47:35;10.10;99.90
18805;DHT22;9530;48.930;9.526;2022-10-12T02:50:07;10.10;99.90
18805;DHT22;9530;48.930;9.526;2022-10-12T02:52:35;10.10;99.90
18805;DHT22;9530;48.930;9.526;2022-10-12T02:55:02;10.10;99.90
18805;DHT22;9530;48.930;9.526;2022-10-12T02:57:28;10.20;99.90
18805;DHT22;9530;48.930;9.526;2022-10-12T02:59:55;10.20;99.90
18805;DHT22;9530;48.930;9.526;2022-10-12T03:02:22;10.20;99.90
18805;DHT22;9530;48.930;9.526;2022-10-12T03:04:48;10.30;99.90
18805;DHT22;9530;48.930;9.526;2022-10-12T03:07:16;10.20;99.90
18805;DHT22;9530;48.930;9.526;2022-10-12T03:09:43;10.20;99.90
18805;DHT22;9530;48.930;9.526;2022-10-12T03:12:10;10.20;99.90
18805;DHT22;9530;48.930;9.526;2022-10-12T03:14:37;10.30;99.90
18805;DHT22;9530;48.930;9.526;2022-10-12T03:17:03;10.30;99.90
18805;DHT22;9530;48.930;9.526;2022-10-12T03:19:30;10.20;99.90
18805;DHT22;9530;48.930;9.526;2022-10-12T03:21:57;10.20;99.90
18805;DHT22;9530;48.930;9.526;2022-10-12T03:24:25;10.30;99.90
18805;DHT22;9530;48.930;9.526;2022-10-12T03:26:51;10.30;99.90
18805;DHT22;9530;48.930;9.526;2022-10-12T03:29:18;10.30;99.90
18805;DHT22;9530;48.930;9.526;2022-10-12T03:31:45;10.40;99.90
18805;DHT22;9530;48.930;9.526;2022-10-12T03:34:11;10.40;99.90
18805;DHT22;9530;48.930;9.526;2022-10-12T03:36:38;10.50;99.90
18805;DHT22;9530;48.930;9.526;2022-10-12T03:39:05;10.60;99.90
18805;DHT22;9530;48.930;9.526;2022-10-12T03:41:33;10.60;99.90
18805;DHT22;9530;48.930;9.526;2022-10-12T03:44:00;10.60;99.90
18805;DHT22;9530;48.930;9.526;2022-10-12T03:46:26;10.70;99.90
18805;DHT22;9530;48.930;9.526;2022-10-12T03:48:53;10.70;99.90
18805;DHT22;9530;48.930;9.526;2022-10-12T03:51:20;10.70;99.90
18805;DHT22;9530;48.930;9.526;2022-10-12T03:53:46;10.80;99.90
18805;DHT22;9530;48.930;9.526;2022-10-12T03:56:13;10.80;99.90
18805;DHT22;9530;48.930;9.526;2022-10-12T03:58:41;10.90;99.90
18805;DHT22;9530;48.930;9.526;2022-10-12T04:01:08;10.90;99.90
18805;DHT22;9530;48.930;9.526;2022-10-12T04:03:34;11.00;99.90
18805;DHT22;9530;48.930;9.526;2022-10-12T04:06:02;11.10;99.90
18805;DHT22;9530;48.930;9.526;2022-10-12T04:08:29;11.10;99.90
18805;DHT22;9530;48.930;9.526;2022-10-12T04:10:56;11.10;99.90
18805;DHT22;9530;48.930;9.526;2022-10-12T04:13:23;11.10;99.90
18805;DHT22;9530;48.930;9.526;2022-10-12T04:15:51;11.10;99.90
18805;DHT22;9530;48.930;9.526;2022-10-12T04:18:18;11.10;99.90
18805;DHT22;9530;48.930;9.526;2022-10-12T04:20:46;11.10;99.90
18805;DHT22;9530;48.930;9.526;2022-10-12T04:23:13;11.20;99.90
18805;DHT22;9530;48.930;9.526;2022-10-12T04:25:40;11.20;99.90
18805;DHT22;9530;48.930;9.526;2022-10-12T04:28:07;11.20;99.90
18805;DHT22;9530;48.930;9.526;2022-10-12T04:30:33;11.20;99.90
18805;DHT22;9530;48.930;9.526;2022-10-12T04:33:02;11.20;99.90
18805;DHT22;9530;48.930;9.526;2022-10-12T04:35:28;11.30;99.90
18805;DHT22;9530;48.930;9.526;2022-10-12T04:37:55;11.30;99.90
18805;DHT22;9530;48.930;9.526;2022-10-12T04:40:22;11.30;99.90
18805;DHT22;9530;48.930;9.526;2022-10-12T04:42:49;11.30;99.90
18805;DHT22;9530;48.930;9.526;2022-10-12T04:45:15;11.40;99.90
18805;DHT22;9530;48.930;9.526;2022-10-12T04:47:42;11.40;99.90
18805;DHT22;9530;48.930;9.526;2022-10-12T04:50:10;11.40;99.90
18805;DHT22;9530;48.930;9.526;2022-10-12T04:52:37;11.40;99.90
18805;DHT22;9530;48.930;9.526;2022-10-12T04:55:04;11.40;99.90
18805;DHT22;9530;48.930;9.526;2022-10-12T04:57:31;11.50;99.90
18805;DHT22;9530;48.930;9.526;2022-10-12T04:59:58;11.50;99.90
18805;DHT22;9530;48.930;9.526;2022-10-12T05:02:24;11.50;99.90
18805;DHT22;9530;48.930;9.526;2022-10-12T05:04:51;11.50;99.90
18805;DHT22;9530;48.930;9.526;2022-10-12T05:07:19;11.50;99.90
18805;DHT22;9530;48.930;9.526;2022-10-12T05:09:46;11.50;99.90
18805;DHT22;9530;48.930;9.526;2022-10-12T05:12:13;11.60;99.90
18805;DHT22;9530;48.930;9.526;2022-10-12T05:14:39;11.70;99.90
18805;DHT22;9530;48.930;9.526;2022-10-12T05:17:08;11.60;99.90
18805;DHT22;9530;48.930;9.526;2022-10-12T05:19:35;11.50;99.90
18805;DHT22;9530;48.930;9.526;2022-10-12T05:22:02;11.40;99.90
18805;DHT22;9530;48.930;9.526;2022-10-12T05:24:30;11.40;99.90
18805;DHT22;9530;48.930;9.526;2022-10-12T05:26:56;11.40;99.90
18805;DHT22;9530;48.930;9.526;2022-10-12T05:29:23;11.40;99.90
18805;DHT22;9530;48.930;9.526;2022-10-12T05:31:50;11.30;99.90
18805;DHT22;9530;48.930;9.526;2022-10-12T05:34:17;11.40;99.90
18805;DHT22;9530;48.930;9.526;2022-10-12T05:36:44;11.30;99.90
18805;DHT22;9530;48.930;9.526;2022-10-12T05:39:11;11.30;99.90
18805;DHT22;9530;48.930;9.526;2022-10-12T05:41:39;11.30;99.90
18805;DHT22;9530;48.930;9.526;2022-10-12T05:44:06;11.30;99.90
18805;DHT22;9530;48.930;9.526;2022-10-12T05:46:33;11.30;99.90
18805;DHT22;9530;48.930;9.526;2022-10-12T05:48:59;11.40;99.90
18805;DHT22;9530;48.930;9.526;2022-10-12T05:51:26;11.40;99.90
18805;DHT22;9530;48.930;9.526;2022-10-12T05:53:53;11.40;99.90
18805;DHT22;9530;48.930;9.526;2022-10-12T05:56:19;11.40;99.90
18805;DHT22;9530;48.930;9.526;2022-10-12T05:58:48;11.40;99.90
18805;DHT22;9530;48.930;9.526;2022-10-12T06:01:14;11.40;99.90
18805;DHT22;9530;48.930;9.526;2022-10-12T06:03:41;11.40;99.90
18805;DHT22;9530;48.930;9.526;2022-10-12T06:06:09;11.30;99.90
18805;DHT22;9530;48.930;9.526;2022-10-12T06:08:35;11.30;99.90
18805;DHT22;9530;48.930;9.526;2022-10-12T06:11:03;11.30;99.90
18805;DHT22;9530;48.930;9.526;2022-10-12T06:13:29;11.40;99.90
18805;DHT22;9530;48.930;9.526;2022-10-12T06:15:57;11.40;99.90
18805;DHT22;9530;48.930;9.526;2022-10-12T06:18:24;11.40;99.90
18805;DHT22;9530;48.930;9.526;2022-10-12T06:20:53;11.50;99.90
18805;DHT22;9530;48.930;9.526;2022-10-12T06:23:21;11.50;99.90
18805;DHT22;9530;48.930;9.526;2022-10-12T06:25:49;11.60;99.90
18805;DHT22;9530;48.930;9.526;2022-10-12T06:28:18;11.60;99.90
18805;DHT22;9530;48.930;9.526;2022-10-12T06:30:45;11.70;99.90
18805;DHT22;9530;48.930;9.526;2022-10-12T06:33:19;11.80;99.90
18805;DHT22;9530;48.930;9.526;2022-10-12T06:35:45;11.80;99.90
18805;DHT22;9530;48.930;9.526;2022-10-12T06:38:12;11.90;99.90
18805;DHT22;9530;48.930;9.526;2022-10-12T06:40:39;11.90;99.90
18805;DHT22;9530;48.930;9.526;2022-10-12T06:43:06;12.00;99.90
18805;DHT22;9530;48.930;9.526;2022-10-12T06:45:32;12.10;99.90
18805;DHT22;9530;48.930;9.526;2022-10-12T06:47:59;12.10;99.90
18805;DHT22;9530;48.930;9.526;2022-10-12T06:50:27;12.20;99.90
18805;DHT22;9530;48.930;9.526;2022-10-12T06:52:54;12.20;99.90
18805;DHT22;9530;48.930;9.526;2022-10-12T06:55:21;12.20;99.90
18805;DHT22;9530;48.930;9.526;2022-10-12T06:57:48;12.20;99.90
18805;DHT22;9530;48.930;9.526;2022-10-12T07:00:15;12.30;99.90
18805;DHT22;9530;48.930;9.526;2022-10-12T07:02:42;12.40;99.90
18805;DHT22;9530;48.930;9.526;2022-10-12T07:05:08;12.50;99.90
18805;DHT22;9530;48.930;9.526;2022-10-12T07:07:36;12.50;99.90
18805;DHT22;9530;48.930;9.526;2022-10-12T07:10:04;12.50;99.90
18805;DHT22;9530;48.930;9.526;2022-10-12T07:12:32;12.70;99.90
18805;DHT22;9530;48.930;9.526;2022-10-12T07:15:00;12.90;99.90
18805;DHT22;9530;48.930;9.526;2022-10-12T07:17:27;12.90;99.90
18805;DHT22;9530;48.930;9.526;2022-10-12T07:19:53;13.00;99.90
18805;DHT22;9530;48.930;9.526;2022-10-12T07:22:20;13.10;99.90
18805;DHT22;9530;48.930;9.526;2022-10-12T07:24:48;13.20;99.90
18805;DHT22;9530;48.930;9.526;2022-10-12T07:27:15;13.30;99.90
18805;DHT22;9530;48.930;9.526;2022-10-12T07:29:42;13.30;99.90
18805;DHT22;9530;48.930;9.526;2022-10-12T07:32:08;13.40;99.90
18805;DHT22;9530;48.930;9.526;2022-10-12T07:34:35;13.40;99.90
18805;DHT22;9530;48.930;9.526;2022-10-12T07:37:02;13.50;99.90
18805;DHT22;9530;48.930;9.526;2022-10-12T07:39:29;13.50;99.90
18805;DHT22;9530;48.930;9.526;2022-10-12T07:41:57;13.60;99.90
18805;DHT22;9530;48.930;9.526;2022-10-12T07:44:23;13.80;99.90
18805;DHT22;9530;48.930;9.526;2022-10-12T07:46:50;13.90;99.90
18805;DHT22;9530;48.930;9.526;2022-10-12T07:49:17;14.10;99.90
18805;DHT22;9530;48.930;9.526;2022-10-12T07:51:44;14.30;99.90
18805;DHT22;9530;48.930;9.526;2022-10-12T07:54:12;14.50;99.90
18805;DHT22;9530;48.930;9.526;2022-10-12T07:56:39;14.60;99.90
18805;DHT22;9530;48.930;9.526;2022-10-12T07:59:07;14.80;99.90
18805;DHT22;9530;48.930;9.526;2022-10-12T08:01:34;15.00;99.90
18805;DHT22;9530;48.930;9.526;2022-10-12T08:04:01;15.10;99.90
18805;DHT22;9530;48.930;9.526;2022-10-12T08:06:30;15.10;99.90
18805;DHT22;9530;48.930;9.526;2022-10-12T08:08:57;15.00;99.90
18805;DHT22;9530;48.930;9.526;2022-10-12T08:11:24;15.00;99.90
18805;DHT22;9530;48.930;9.526;2022-10-12T08:13:51;15.10;99.90
18805;DHT22;9530;48.930;9.526;2022-10-12T08:16:20;15.20;99.90
18805;DHT22;9530;48.930;9.526;2022-10-12T08:18:47;15.30;99.90
18805;DHT22;9530;48.930;9.526;2022-10-12T08:21:15;15.50;99.90
18805;DHT22;9530;48.930;9.526;2022-10-12T08:23:42;15.50;99.90
18805;DHT22;9530;48.930;9.526;2022-10-12T08:26:10;15.60;99.90
18805;DHT22;9530;48.930;9.526;2022-10-12T08:28:37;15.80;99.90
18805;DHT22;9530;48.930;9.526;2022-10-12T08:31:06;16.20;99.90
18805;DHT22;9530;48.930;9.526;2022-10-12T08:33:34;16.30;99.90
18805;DHT22;9530;48.930;9.526;2022-10-12T08:36:01;16.60;99.90
18805;DHT22;9530;48.930;9.526;2022-10-12T08:38:28;16.70;99.90
18805;DHT22;9530;48.930;9.526;2022-10-12T08:41:01;16.70;99.90
18805;DHT22;9530;48.930;9.526;2022-10-12T08:43:41;16.70;99.90
18805;DHT22;9530;48.930;9.526;2022-10-12T08:46:12;16.70;99.90
18805;DHT22;9530;48.930;9.526;2022-10-12T08:48:45;16.90;99.90
18805;DHT22;9530;48.930;9.526;2022-10-12T08:51:16;16.80;99.90
18805;DHT22;9530;48.930;9.526;2022-10-12T08:53:48;16.80;99.90
18805;DHT22;9530;48.930;9.526;2022-10-12T08:56:15;16.90;99.90
18805;DHT22;9530;48.930;9.526;2022-10-12T08:58:44;16.90;99.90
18805;DHT22;9530;48.930;9.526;2022-10-12T09:01:17;16.80;99.90
18805;DHT22;9530;48.930;9.526;2022-10-12T09:04:00;17.00;99.90
18805;DHT22;9530;48.930;9.526;2022-10-12T09:06:34;17.10;99.90
18805;DHT22;9530;48.930;9.526;2022-10-12T09:09:14;17.10;99.90
18805;DHT22;9530;48.930;9.526;2022-10-12T09:11:56;17.30;99.90
18805;DHT22;9530;48.930;9.526;2022-10-12T09:14:28;17.50;99.90
18805;DHT22;9530;48.930;9.526;2022-10-12T09:16:56;17.60;99.90
18805;DHT22;9530;48.930;9.526;2022-10-12T09:19:29;17.60;99.90
18805;DHT22;9530;48.930;9.526;2022-10-12T09:21:58;17.80;99.90
18805;DHT22;9530;48.930;9.526;2022-10-12T09:24:26;17.80;99.90
18805;DHT22;9530;48.930;9.526;2022-10-12T09:26:58;17.80;99.90
18805;DHT22;9530;48.930;9.526;2022-10-12T09:29:27;17.80;99.90
18805;DHT22;9530;48.930;9.526;2022-10-12T09:32:16;17.70;99.90
18805;DHT22;9530;48.930;9.526;2022-10-12T09:34:47;17.70;99.90
18805;DHT22;9530;48.930;9.526;2022-10-12T09:37:19;17.50;99.90
18805;DHT22;9530;48.930;9.526;2022-10-12T09:39:47;17.40;99.90
18805;DHT22;9530;48.930;9.526;2022-10-12T09:42:15;17.40;99.90
18805;DHT22;9530;48.930;9.526;2022-10-12T09:44:45;17.30;99.90
18805;DHT22;9530;48.930;9.526;2022-10-12T09:47:26;17.10;99.90
18805;DHT22;9530;48.930;9.526;2022-10-12T09:49:56;17.00;99.90
18805;DHT22;9530;48.930;9.526;2022-10-12T09:52:27;17.00;99.90
18805;DHT22;9530;48.930;9.526;2022-10-12T09:54:57;17.10;99.90
18805;DHT22;9530;48.930;9.526;2022-10-12T09:57:25;17.30;99.90
18805;DHT22;9530;48.930;9.526;2022-10-12T09:59:54;17.50;99.90
18805;DHT22;9530;48.930;9.526;2022-10-12T10:02:21;17.60;99.90
18805;DHT22;9530;48.930;9.526;2022-10-12T10:04:49;17.50;99.90
18805;DHT22;9530;48.930;9.526;2022-10-12T10:07:25;17.60;99.90
18805;DHT22;9530;48.930;9.526;2022-10-12T10:10:13;17.60;99.90
18805;DHT22;9530;48.930;9.526;2022-10-12T10:12:46;17.50;99.90
18805;DHT22;9530;48.930;9.526;2022-10-12T10:15:20;17.60;99.90
18805;DHT22;9530;48.930;9.526;2022-10-12T10:17:49;17.40;99.90
18805;DHT22;9530;48.930;9.526;2022-10-12T10:20:35;17.50;99.90
18805;DHT22;9530;48.930;9.526;2022-10-12T10:23:05;17.60;99.90
18805;DHT22;9530;48.930;9.526;2022-10-12T10:25:33;17.60;99.90
18805;DHT22;9530;48.930;9.526;2022-10-12T10:28:19;17.50;99.90
18805;DHT22;9530;48.930;9.526;2022-10-12T10:30:55;17.70;99.90
18805;DHT22;9530;48.930;9.526;2022-10-12T10:33:23;17.70;99.90
18805;DHT22;9530;48.930;9.526;2022-10-12T10:35:58;17.70;99.90
18805;DHT22;9530;48.930;9.526;2022-10-12T10:38:30;17.70;99.90
18805;DHT22;9530;48.930;9.526;2022-10-12T10:41:00;17.90;99.90
18805;DHT22;9530;48.930;9.526;2022-10-12T10:43:29;17.80;99.90
18805;DHT22;9530;48.930;9.526;2022-10-12T10:45:58;17.80;99.90
18805;DHT22;9530;48.930;9.526;2022-10-12T10:48:28;17.90;99.90
18805;DHT22;9530;48.930;9.526;2022-10-12T10:50:57;17.70;99.90
18805;DHT22;9530;48.930;9.526;2022-10-12T10:53:29;17.70;99.90
18805;DHT22;9530;48.930;9.526;2022-10-12T10:56:01;17.70;99.90
18805;DHT22;9530;48.930;9.526;2022-10-12T10:58:33;17.60;99.90
18805;DHT22;9530;48.930;9.526;2022-10-12T11:01:05;17.70;99.90
18805;DHT22;9530;48.930;9.526;2022-10-12T11:03:45;17.60;99.90
18805;DHT22;9530;48.930;9.526;2022-10-12T11:06:18;17.60;99.90
18805;DHT22;9530;48.930;9.526;2022-10-12T11:08:48;17.40;99.90
18805;DHT22;9530;48.930;9.526;2022-10-12T11:11:19;17.40;99.90
18805;DHT22;9530;48.930;9.526;2022-10-12T11:13:52;17.30;99.90
18805;DHT22;9530;48.930;9.526;2022-10-12T11:16:28;17.40;99.90
18805;DHT22;9530;48.930;9.526;2022-10-12T11:18:59;17.40;99.90
18805;DHT22;9530;48.930;9.526;2022-10-12T11:21:31;17.40;99.90
18805;DHT22;9530;48.930;9.526;2022-10-12T11:24:09;17.40;99.90
18805;DHT22;9530;48.930;9.526;2022-10-12T11:26:40;17.50;99.90
18805;DHT22;9530;48.930;9.526;2022-10-12T11:29:12;17.50;99.90
18805;DHT22;9530;48.930;9.526;2022-10-12T11:31:45;17.70;99.90
18805;DHT22;9530;48.930;9.526;2022-10-12T11:34:16;17.70;99.90
18805;DHT22;9530;48.930;9.526;2022-10-12T11:36:46;17.70;99.90
18805;DHT22;9530;48.930;9.526;2022-10-12T11:39:18;17.80;99.90
18805;DHT22;9530;48.930;9.526;2022-10-12T11:41:48;17.80;99.90
18805;DHT22;9530;48.930;9.526;2022-10-12T11:44:18;17.90;99.90
18805;DHT22;9530;48.930;9.526;2022-10-12T11:46:48;17.90;99.90
18805;DHT22;9530;48.930;9.526;2022-10-12T11:49:23;18.00;99.90
18805;DHT22;9530;48.930;9.526;2022-10-12T11:51:53;17.80;99.90
18805;DHT22;9530;48.930;9.526;2022-10-12T11:54:27;18.00;99.90
18805;DHT22;9530;48.930;9.526;2022-10-12T11:56:59;18.00;99.90
18805;DHT22;9530;48.930;9.526;2022-10-12T11:59:33;18.10;99.90
18805;DHT22;9530;48.930;9.526;2022-10-12T12:02:09;17.90;99.90
18805;DHT22;9530;48.930;9.526;2022-10-12T12:04:41;17.90;99.90
18805;DHT22;9530;48.930;9.526;2022-10-12T12:07:38;18.10;99.90
18805;DHT22;9530;48.930;9.526;2022-10-12T12:13:16;17.80;99.90
18805;DHT22;9530;48.930;9.526;2022-10-12T12:19:10;17.60;99.90
18805;DHT22;9530;48.930;9.526;2022-10-12T12:22:09;17.50;99.90
18805;DHT22;9530;48.930;9.526;2022-10-12T12:24:37;17.50;99.90
18805;DHT22;9530;48.930;9.526;2022-10-12T12:27:13;17.60;99.90
18805;DHT22;9530;48.930;9.526;2022-10-12T12:29:50;17.70;99.90
18805;DHT22;9530;48.930;9.526;2022-10-12T12:32:18;17.60;99.90
18805;DHT22;9530;48.930;9.526;2022-10-12T12:34:53;17.50;99.90
18805;DHT22;9530;48.930;9.526;2022-10-12T12:37:21;17.60;99.90
18805;DHT22;9530;48.930;9.526;2022-10-12T12:39:53;17.90;99.90
18805;DHT22;9530;48.930;9.526;2022-10-12T12:42:24;18.10;99.90
18805;DHT22;9530;48.930;9.526;2022-10-12T12:44:53;18.30;99.90
18805;DHT22;9530;48.930;9.526;2022-10-12T12:47:35;18.40;99.90
18805;DHT22;9530;48.930;9.526;2022-10-12T12:50:26;18.50;99.90
18805;DHT22;9530;48.930;9.526;2022-10-12T12:53:01;18.70;99.90
18805;DHT22;9530;48.930;9.526;2022-10-12T12:58:35;18.20;99.90
18805;DHT22;9530;48.930;9.526;2022-10-12T13:01:23;18.10;99.90
18805;DHT22;9530;48.930;9.526;2022-10-12T13:04:08;18.00;99.90
18805;DHT22;9530;48.930;9.526;2022-10-12T13:10:22;17.70;99.90
18805;DHT22;9530;48.930;9.526;2022-10-12T13:13:18;17.80;99.90
18805;DHT22;9530;48.930;9.526;2022-10-12T13:15:58;17.80;99.90
18805;DHT22;9530;48.930;9.526;2022-10-12T13:18:48;18.20;99.90
18805;DHT22;9530;48.930;9.526;2022-10-12T13:21:19;18.20;99.90
18805;DHT22;9530;48.930;9.526;2022-10-12T13:23:49;18.30;99.90
18805;DHT22;9530;48.930;9.526;2022-10-12T13:26:20;18.40;99.90
18805;DHT22;9530;48.930;9.526;2022-10-12T13:28:49;18.30;99.90
18805;DHT22;9530;48.930;9.526;2022-10-12T13:31:20;18.40;99.90
18805;DHT22;9530;48.930;9.526;2022-10-12T13:34:00;18.50;99.90
18805;DHT22;9530;48.930;9.526;2022-10-12T13:36:30;18.80;99.90
18805;DHT22;9530;48.930;9.526;2022-10-12T13:38:59;19.00;99.90
18805;DHT22;9530;48.930;9.526;2022-10-12T13:41:33;19.10;99.90
18805;DHT22;9530;48.930;9.526;2022-10-12T13:44:03;19.20;99.90
18805;DHT22;9530;48.930;9.526;2022-10-12T13:46:36;19.20;99.90
18805;DHT22;9530;48.930;9.526;2022-10-12T13:49:12;19.20;99.90
18805;DHT22;9530;48.930;9.526;2022-10-12T13:51:39;19.20;99.90
18805;DHT22;9530;48.930;9.526;2022-10-12T13:54:17;19.20;99.90
18805;DHT22;9530;48.930;9.526;2022-10-12T13:56:48;19.10;99.90
18805;DHT22;9530;48.930;9.526;2022-10-12T13:59:20;19.10;99.90
18805;DHT22;9530;48.930;9.526;2022-10-12T14:01:50;19.20;99.90
18805;DHT22;9530;48.930;9.526;2022-10-12T14:04:18;19.20;99.90
18805;DHT22;9530;48.930;9.526;2022-10-12T14:06:48;19.30;99.90
18805;DHT22;9530;48.930;9.526;2022-10-12T14:09:21;19.30;99.90
18805;DHT22;9530;48.930;9.526;2022-10-12T14:11:49;19.40;99.90
18805;DHT22;9530;48.930;9.526;2022-10-12T14:14:19;19.30;99.90
18805;DHT22;9530;48.930;9.526;2022-10-12T14:16:50;19.30;99.90
18805;DHT22;9530;48.930;9.526;2022-10-12T14:19:20;19.40;99.90
18805;DHT22;9530;48.930;9.526;2022-10-12T14:21:57;19.40;99.90
18805;DHT22;9530;48.930;9.526;2022-10-12T14:24:25;19.30;99.90
18805;DHT22;9530;48.930;9.526;2022-10-12T14:26:53;19.30;99.90
18805;DHT22;9530;48.930;9.526;2022-10-12T14:29:31;19.10;99.90
18805;DHT22;9530;48.930;9.526;2022-10-12T14:31:59;19.20;99.90
18805;DHT22;9530;48.930;9.526;2022-10-12T14:34:36;19.10;99.90
18805;DHT22;9530;48.930;9.526;2022-10-12T14:37:05;18.90;99.90
18805;DHT22;9530;48.930;9.526;2022-10-12T14:39:45;18.90;99.90
18805;DHT22;9530;48.930;9.526;2022-10-12T14:42:18;18.80;99.90
18805;DHT22;9530;48.930;9.526;2022-10-12T14:44:45;19.00;99.90
18805;DHT22;9530;48.930;9.526;2022-10-12T14:47:17;19.00;99.90
18805;DHT22;9530;48.930;9.526;2022-10-12T14:49:48;19.00;99.90
18805;DHT22;9530;48.930;9.526;2022-10-12T14:52:19;19.30;99.90
18805;DHT22;9530;48.930;9.526;2022-10-12T14:54:49;19.30;99.90
18805;DHT22;9530;48.930;9.526;2022-10-12T14:57:17;19.40;99.90
18805;DHT22;9530;48.930;9.526;2022-10-12T14:59:43;19.30;99.90
18805;DHT22;9530;48.930;9.526;2022-10-12T15:02:14;19.50;99.90
18805;DHT22;9530;48.930;9.526;2022-10-12T15:04:41;19.50;99.90
18805;DHT22;9530;48.930;9.526;2022-10-12T15:07:14;19.50;99.90
18805;DHT22;9530;48.930;9.526;2022-10-12T15:09:41;19.10;99.90
18805;DHT22;9530;48.930;9.526;2022-10-12T15:12:10;18.80;99.90
18805;DHT22;9530;48.930;9.526;2022-10-12T15:14:38;18.60;99.90
18805;DHT22;9530;48.930;9.526;2022-10-12T15:17:05;18.40;99.90
18805;DHT22;9530;48.930;9.526;2022-10-12T15:19:32;18.10;99.90
18805;DHT22;9530;48.930;9.526;2022-10-12T15:21:58;17.90;99.90
18805;DHT22;9530;48.930;9.526;2022-10-12T15:24:27;17.60;99.90
18805;DHT22;9530;48.930;9.526;2022-10-12T15:26:53;17.60;99.90
18805;DHT22;9530;48.930;9.526;2022-10-12T15:29:20;17.40;99.90
18805;DHT22;9530;48.930;9.526;2022-10-12T15:31:47;17.30;99.90
18805;DHT22;9530;48.930;9.526;2022-10-12T15:34:14;17.20;99.90
18805;DHT22;9530;48.930;9.526;2022-10-12T15:36:41;17.00;99.90
18805;DHT22;9530;48.930;9.526;2022-10-12T15:39:08;16.90;99.90
18805;DHT22;9530;48.930;9.526;2022-10-12T15:41:36;16.90;99.90
18805;DHT22;9530;48.930;9.526;2022-10-12T15:44:03;16.80;99.90
18805;DHT22;9530;48.930;9.526;2022-10-12T15:46:29;16.80;99.90
18805;DHT22;9530;48.930;9.526;2022-10-12T15:48:56;16.70;99.90
18805;DHT22;9530;48.930;9.526;2022-10-12T15:51:24;16.60;99.90
18805;DHT22;9530;48.930;9.526;2022-10-12T15:53:51;16.50;99.90
18805;DHT22;9530;48.930;9.526;2022-10-12T15:56:19;16.50;99.90
18805;DHT22;9530;48.930;9.526;2022-10-12T15:58:47;16.40;99.90
18805;DHT22;9530;48.930;9.526;2022-10-12T16:01:15;16.30;99.90
18805;DHT22;9530;48.930;9.526;2022-10-12T16:03:43;16.00;99.90
18805;DHT22;9530;48.930;9.526;2022-10-12T16:06:10;15.90;99.90
18805;DHT22;9530;48.930;9.526;2022-10-12T16:08:36;15.70;99.90
18805;DHT22;9530;48.930;9.526;2022-10-12T16:11:04;15.60;99.90
18805;DHT22;9530;48.930;9.526;2022-10-12T16:13:31;15.40;99.90
18805;DHT22;9530;48.930;9.526;2022-10-12T16:15:59;15.20;99.90